Aérodrome :
LOGIN :

S'inscrire | Disclaimer

   EN    FR    IT 

 










Légende :    VFR   VFR Marginal   IFR   IFR Intensif   IFR Très Intensif
Visi : 
Plafond : 
>= 8 km
>= 3000ft
5 à 8 km
1000 à 3000 ft
1500m à 5 km
500 à 1000 ft
800 à 1500m
200 à 500 ft
< 800m
< 200 ft
Symboles :   Orages  Brouillard  Fortes neiges  Fortes précipitations  Vent > 20 kt
SIGMETs :   Divers  Orages  Givrage  Turbulence  Onde Orograph.  Cendres Volcan.







- Altitude de l'aérodrome : 46 ft
- Code IATA : PAF


LPMT - Montijo Air Base

DERNIER METAR :
  • 270000Z 33005KT 9999 FEW018 18/15 Q1014

METARs EXPIRÉS :
  • 262300Z 31004KT CAVOK 18/15 Q1014

TAF TAF LPMT
Valide du 27 à 00h jusqu'au 28 à 00h UTC


262307Z 2700/2724 32005KT 9999 SCT030
PROB40 2702/2707 BKN012
BECMG 2709/2711 28010KT
PROB40
TEMPO 2710/2716 8000 -SHRA FEW015 FEW020TCU BKN030
TEMPO 2712/2718 30012G22KT
Pas de NOTAMs connus pour ce terrain.



MET'MAP, la Météo Aéronautique d'un coup d'oeil ! - Copyright ORBIFLY Décembre 2007 - Disclaimer

ORBIFLY MET'MAP TEAM :

Programmation & Développement : Alexandra Zaïnal
Conception & Développement : Baudouin d'Aumeries
Co-Programmation & Développement : Marc-Olivier Méhu
Soutien technique & logistique : Manuel Goepfert

Contact : metmap@orbifly.com




SOURCES & CREDITS :

   NOAA